Time;durP1;ratioP1;P1;durP2;ratioP2;P2;SDS_P1;SDS_P2;PMS_P1;PMS_P2;Temp;Humidity;BMP_temperature;BMP_pressure;BME280_temperature;BME280_humidity;BME280_pressure;Samples;Min_cycle;Max_cycle;Signal;HPM_P1;HPM_P2
2022/12/30 00:00:42;;;;;;;12.47;6.10;;;;;;;5.25;84.02;98861.95;4184959;83;21091;-86
2022/12/30 00:06:47;;;;;;;11.63;5.92;;;;;;;5.19;84.26;98856.54;4179325;83;21546;-87
2022/12/30 00:38:24;;;;;;;15.98;7.87;;;;;;;4.95;84.41;98852.50;4178058;83;20971;-89
2022/12/30 00:44:26;;;;;;;16.90;7.20;;;;;;;4.84;84.38;98858.16;4180160;83;20962;-90
2022/12/30 00:56:48;;;;;;;28.12;13.00;;;;;;;4.42;84.78;98871.71;4180094;83;21022;-90
2022/12/30 01:02:49;;;;;;;29.48;13.03;;;;;;;4.24;84.93;98868.99;4178971;83;21121;-89
2022/12/30 01:08:51;;;;;;;32.75;13.58;;;;;;;4.17;85.29;98859.25;4176385;83;21057;-89
2022/12/30 01:14:55;;;;;;;31.33;14.13;;;;;;;4.02;85.15;98858.00;4177494;83;21062;-88
2022/12/30 01:20:59;;;;;;;24.82;12.25;;;;;;;3.91;85.52;98851.98;4158352;83;21283;-88
2022/12/30 01:27:01;;;;;;;28.90;13.40;;;;;;;3.69;85.47;98841.53;4181836;83;21037;-88
2022/12/30 01:33:03;;;;;;;26.93;13.13;;;;;;;3.60;86.02;98845.69;4176573;84;21049;-89
2022/12/30 01:39:05;;;;;;;31.70;15.38;;;;;;;3.53;86.27;98828.38;4151848;83;21101;-89
2022/12/30 01:45:26;;;;;;;29.55;12.20;;;;;;;3.41;86.60;98821.57;4181118;83;21034;-89
2022/12/30 01:51:31;;;;;;;23.32;10.18;;;;;;;3.27;86.69;98818.34;4181111;83;21068;-88
2022/12/30 01:57:33;;;;;;;22.32;9.80;;;;;;;3.05;86.86;98812.14;4182111;83;21659;-88
2022/12/30 02:03:39;;;;;;;22.82;10.18;;;;;;;2.91;87.58;98804.85;4176461;83;21042;-89
2022/12/30 02:09:42;;;;;;;20.75;10.32;;;;;;;2.84;88.51;98808.66;4183918;83;21398;-89
2022/12/30 02:16:41;;;;;;;29.05;13.25;;;;;;;2.70;88.25;98812.72;4160228;83;21063;-89
2022/12/30 02:23:18;;;;;;;29.85;13.98;;;;;;;2.57;88.71;98809.13;4187786;83;21046;-89
2022/12/30 02:29:38;;;;;;;28.10;13.05;;;;;;;2.53;89.04;98811.47;4174396;83;21669;-89
2022/12/30 02:36:06;;;;;;;24.65;12.53;;;;;;;2.44;89.13;98808.03;4172370;84;22562;-88
2022/12/30 02:48:34;;;;;;;29.37;14.20;;;;;;;2.22;89.96;98810.45;4164808;84;20177;-88
2022/12/30 02:54:36;;;;;;;27.10;12.75;;;;;;;2.14;90.45;98818.02;4164264;84;21579;-89
2022/12/30 03:08:00;;;;;;;33.23;17.60;;;;;;;2.03;90.86;98835.69;4149514;84;21035;-89
2022/12/30 03:14:28;;;;;;;29.65;15.32;;;;;;;1.94;91.03;98832.23;4028477;87;21057;-88
2022/12/30 03:20:32;;;;;;;28.40;14.93;;;;;;;1.87;91.42;98835.97;4030723;87;21034;-89
2022/12/30 03:32:55;;;;;;;31.90;14.80;;;;;;;1.81;92.43;98837.80;3977432;87;21094;-88
2022/12/30 03:39:07;;;;;;;31.90;17.27;;;;;;;1.63;91.91;98851.88;4027181;87;21492;-88
2022/12/30 03:45:10;;;;;;;37.15;18.40;;;;;;;1.51;92.40;98849.84;4143424;84;21062;-90
2022/12/30 03:51:12;;;;;;;37.73;19.25;;;;;;;1.59;93.40;98859.03;4139663;84;21566;-88
2022/12/30 03:57:14;;;;;;;37.00;16.87;;;;;;;1.68;93.59;98865.78;4035901;87;21047;-88
2022/12/30 04:03:15;;;;;;;28.25;15.18;;;;;;;1.70;93.52;98875.69;4022934;87;21116;-88
2022/12/30 04:09:18;;;;;;;35.20;17.45;;;;;;;1.66;93.79;98897.69;4163230;84;21027;-88
2022/12/30 04:15:19;;;;;;;29.92;16.55;;;;;;;1.67;94.21;98898.72;4157472;84;20978;-90
2022/12/30 04:21:21;;;;;;;32.75;17.30;;;;;;;1.73;94.58;98896.63;4048324;84;110462;-88
2022/12/30 04:27:22;;;;;;;37.95;18.32;;;;;;;1.73;94.51;98903.37;4018176;87;21047;-88
2022/12/30 04:33:24;;;;;;;32.40;16.15;;;;;;;1.60;94.52;98909.98;4041961;86;21936;-89
2022/12/30 04:39:26;;;;;;;31.75;16.85;;;;;;;1.51;94.89;98913.79;4038528;86;21034;-89
2022/12/30 04:45:28;;;;;;;39.10;18.30;;;;;;;1.52;95.56;98931.55;4042125;86;21036;-89
2022/12/30 04:51:30;;;;;;;39.63;20.02;;;;;;;1.54;96.10;98945.53;4044088;86;21038;-89
2022/12/30 04:57:31;;;;;;;34.27;17.80;;;;;;;1.51;96.35;98952.91;4159812;84;21522;-88
2022/12/30 05:03:34;;;;;;;44.90;22.32;;;;;;;1.54;96.22;98944.18;4160562;84;21076;-90
2022/12/30 05:09:35;;;;;;;52.85;26.42;;;;;;;1.54;96.42;98970.61;4152514;84;21034;-90
2022/12/30 05:15:37;;;;;;;51.20;26.73;;;;;;;1.51;96.70;98973.14;4158949;84;21080;-88
2022/12/30 05:21:39;;;;;;;59.63;31.30;;;;;;;1.53;97.15;98997.33;4156771;83;21077;-89
2022/12/30 05:27:40;;;;;;;51.48;28.95;;;;;;;1.57;97.17;98997.50;4158069;84;21090;-87
2022/12/30 05:33:42;;;;;;;70.20;35.25;;;;;;;1.62;97.52;99004.10;4137396;84;21074;-89
2022/12/30 05:39:44;;;;;;;78.30;39.27;;;;;;;1.68;97.43;99020.38;4129458;84;21526;-88
2022/12/30 05:45:45;;;;;;;78.60;41.85;;;;;;;1.82;96.82;99021.59;4143826;84;21078;-89
2022/12/30 05:51:47;;;;;;;92.22;45.15;;;;;;;1.93;98.08;99034.44;4142361;84;21046;-88
2022/12/30 05:57:49;;;;;;;83.30;45.30;;;;;;;2.00;98.16;99032.63;4122456;84;21741;-88
2022/12/30 06:03:56;;;;;;;71.05;37.90;;;;;;;2.06;98.35;99047.00;4126665;84;21610;-89
2022/12/30 06:09:57;;;;;;;;;;;;;;;2.08;98.17;99056.94;4067062;86;21087;-88
2022/12/30 06:15:59;;;;;;;82.67;46.02;;;;;;;2.12;98.95;99071.37;3967513;88;20142;-88
2022/12/30 06:22:01;;;;;;;89.50;45.17;;;;;;;2.16;98.95;99073.67;4032737;87;21109;-88
2022/12/30 06:28:03;;;;;;;72.78;39.65;;;;;;;2.24;98.83;99076.16;4127978;84;21057;-88
2022/12/30 06:34:05;;;;;;;68.30;38.73;;;;;;;2.35;99.11;99085.53;4157045;84;21013;-87
2022/12/30 06:40:08;;;;;;;70.32;36.68;;;;;;;2.47;99.09;99098.63;4156495;84;21074;-87
2022/12/30 06:46:10;;;;;;;70.75;38.63;;;;;;;2.54;99.06;99111.64;4155857;84;21088;-88
2022/12/30 06:52:12;;;;;;;66.07;34.15;;;;;;;2.59;99.25;99133.91;4156944;84;21042;-87
2022/12/30 06:58:14;;;;;;;61.18;34.58;;;;;;;2.69;98.43;99134.14;4154235;84;21058;-88
2022/12/30 07:04:18;;;;;;;67.45;37.03;;;;;;;2.77;99.35;99147.63;4158615;84;20978;-88
2022/12/30 07:10:22;;;;;;;67.13;36.77;;;;;;;2.82;99.45;99157.48;4159906;84;21126;-88
2022/12/30 07:16:25;;;;;;;70.28;38.88;;;;;;;2.84;99.84;99162.82;4163653;84;21058;-89
2022/12/30 07:22:26;;;;;;;74.95;41.18;;;;;;;2.87;100.00;99173.54;4141160;84;21081;-87
2022/12/30 07:28:28;;;;;;;71.62;37.95;;;;;;;2.90;100.00;99168.30;4158332;84;21153;-88
2022/12/30 07:34:29;;;;;;;77.40;39.20;;;;;;;2.98;100.00;99180.20;4151783;84;21413;-89
2022/12/30 07:40:31;;;;;;;68.75;35.55;;;;;;;3.03;100.00;99186.27;4153183;84;21106;-89
2022/12/30 07:46:34;;;;;;;61.05;35.65;;;;;;;3.14;100.00;99191.58;4151890;84;21038;-89
2022/12/30 07:52:36;;;;;;;64.60;36.53;;;;;;;3.18;100.00;99201.17;4080720;85;21018;-90
2022/12/30 07:58:38;;;;;;;63.15;34.18;;;;;;;3.25;100.00;99209.61;4068061;86;21042;-90
2022/12/30 08:04:40;;;;;;;83.33;47.58;;;;;;;3.27;100.00;99215.50;4065869;86;21025;-91
2022/12/30 08:10:42;;;;;;;76.40;43.55;;;;;;;3.33;100.00;99215.56;4087713;85;21674;-87
2022/12/30 08:16:43;;;;;;;91.90;52.08;;;;;;;3.44;100.00;99216.00;4036949;86;21694;-87
2022/12/30 08:22:45;;;;;;;73.20;42.95;;;;;;;3.52;100.00;99228.72;4080125;85;21070;-87
2022/12/30 08:28:47;;;;;;;89.80;51.05;;;;;;;3.57;100.00;99234.74;4073132;85;21569;-87
2022/12/30 08:34:48;;;;;;;88.22;47.50;;;;;;;3.63;100.00;99247.02;4083081;85;21096;-90
2022/12/30 08:41:10;;;;;;;88.90;48.48;;;;;;;3.69;100.00;99247.06;4095120;85;21739;-89
2022/12/30 08:47:14;;;;;;;87.00;47.15;;;;;;;3.72;100.00;99249.13;4096793;85;21134;-90
2022/12/30 08:53:16;;;;;;;86.65;48.68;;;;;;;3.78;100.00;99264.08;4098927;85;20982;-90
2022/12/30 08:59:19;;;;;;;83.97;48.00;;;;;;;3.78;100.00;99270.84;4104050;85;21046;-90
2022/12/30 09:05:21;;;;;;;95.20;50.65;;;;;;;3.80;100.00;99285.41;4092872;85;21120;-89
2022/12/30 09:11:29;;;;;;;78.70;42.95;;;;;;;3.83;100.00;99295.05;4059775;86;21090;-90
2022/12/30 09:17:31;;;;;;;79.45;45.23;;;;;;;3.90;100.00;99304.03;4101603;85;21026;-90
2022/12/30 09:23:37;;;;;;;68.67;39.75;;;;;;;4.01;100.00;99299.86;4096150;85;21099;-90
2022/12/30 09:29:39;;;;;;;92.17;50.05;;;;;;;4.15;100.00;99293.08;4085741;85;21137;-90
2022/12/30 09:35:41;;;;;;;84.25;45.63;;;;;;;4.25;100.00;99304.12;4022724;86;22325;-89
2022/12/30 09:48:19;;;;;;;98.78;52.88;;;;;;;4.57;100.00;99307.56;4035399;86;21094;-89
2022/12/30 09:54:27;;;;;;;89.72;45.73;;;;;;;4.76;100.00;99304.63;4035276;86;20991;-91
2022/12/30 10:00:32;;;;;;;59.13;35.80;;;;;;;5.01;100.00;99311.02;4025704;86;21714;-90
2022/12/30 10:06:40;;;;;;;55.20;28.95;;;;;;;5.35;100.00;99297.17;4017715;86;21483;-90
2022/12/30 10:13:20;;;;;;;49.13;27.42;;;;;;;5.68;100.00;99273.53;4047213;86;21026;-90
2022/12/30 10:19:57;;;;;;;52.38;27.98;;;;;;;5.96;100.00;99276.44;4039058;86;21833;-91
2022/12/30 10:26:24;;;;;;;47.83;26.75;;;;;;;6.16;100.00;99272.83;4031111;86;21073;-90
2022/12/30 10:32:30;;;;;;;53.60;29.10;;;;;;;6.26;100.00;99271.80;4042520;86;21165;-88
2022/12/30 10:38:32;;;;;;;37.05;22.55;;;;;;;6.47;99.72;99273.05;4066740;86;21046;-90
2022/12/30 10:45:01;;;;;;;41.23;23.40;;;;;;;6.67;99.11;99274.06;4044203;86;21040;-88
2022/12/30 10:51:05;;;;;;;46.95;23.45;;;;;;;6.73;98.77;99263.17;4074192;86;21649;-89
2022/12/30 10:57:28;;;;;;;42.60;22.27;;;;;;;6.89;98.26;99264.05;4043163;86;21555;-88
2022/12/30 11:03:44;;;;;;;40.95;24.98;;;;;;;6.89;97.65;99273.58;4069644;86;21107;-89
2022/12/30 11:09:47;;;;;;;47.73;27.73;;;;;;;6.87;97.29;99279.92;4074522;86;21010;-90
2022/12/30 11:15:53;;;;;;;50.25;29.72;;;;;;;6.84;97.48;99285.50;4076419;86;21026;-90
2022/12/30 11:21:55;;;;;;;53.05;28.83;;;;;;;6.89;97.47;99288.55;4082218;86;20951;-89
2022/12/30 11:28:04;;;;;;;50.40;29.30;;;;;;;7.08;98.15;99279.20;4072163;86;20998;-90
2022/12/30 11:34:09;;;;;;;47.43;26.20;;;;;;;7.49;98.18;99289.14;4073748;86;21105;-89
2022/12/30 11:40:38;;;;;;;41.98;25.35;;;;;;;7.71;97.02;99295.95;4064417;85;21100;-90
2022/12/30 11:46:47;;;;;;;45.33;24.82;;;;;;;7.66;97.32;99293.48;4077607;86;22113;-89
2022/12/30 11:53:48;;;;;;;40.25;22.40;;;;;;;7.54;97.32;99292.98;4069391;86;21948;-90
2022/12/30 11:59:57;;;;;;;44.70;24.72;;;;;;;7.59;97.06;99287.85;4070026;86;21046;-90
2022/12/30 12:06:09;;;;;;;45.60;24.52;;;;;;;7.68;97.56;99283.83;4065931;86;21081;-87
2022/12/30 12:12:21;;;;;;;48.60;27.95;;;;;;;7.71;97.29;99281.77;4067287;86;21966;-90
2022/12/30 12:18:30;;;;;;;49.15;28.60;;;;;;;7.68;96.78;99285.20;4076340;86;21093;-89
2022/12/30 12:24:36;;;;;;;46.90;27.52;;;;;;;7.79;96.40;99290.92;4064911;86;21046;-89
2022/12/30 12:30:49;;;;;;;50.95;30.88;;;;;;;7.82;96.25;99287.50;4063135;86;21638;-90
2022/12/30 12:37:02;;;;;;;58.28;31.87;;;;;;;7.81;95.98;99298.95;4038823;86;21322;-89
2022/12/30 12:43:21;;;;;;;55.48;31.05;;;;;;;7.79;95.82;99293.09;4041895;86;21568;-89
2022/12/30 12:50:02;;;;;;;64.27;35.52;;;;;;;7.80;95.81;99286.48;4042664;86;21179;-89
2022/12/30 12:56:13;;;;;;;62.05;33.28;;;;;;;7.84;95.79;99297.48;4042867;86;21089;-88
2022/12/30 13:02:58;;;;;;;59.80;33.92;;;;;;;7.87;95.52;99299.52;4045097;86;21051;-90
2022/12/30 13:09:25;;;;;;;59.75;32.90;;;;;;;7.91;95.97;99305.27;4054444;86;21015;-90
2022/12/30 13:15:35;;;;;;;60.70;32.67;;;;;;;7.93;96.40;99307.09;4038539;86;21016;-89
2022/12/30 13:21:38;;;;;;;53.20;28.98;;;;;;;7.87;95.71;99291.34;4033631;86;21516;-90
2022/12/30 13:27:43;;;;;;;54.65;29.55;;;;;;;7.78;95.54;99292.08;4031134;86;21035;-89
2022/12/30 13:34:11;;;;;;;55.58;30.00;;;;;;;7.66;95.43;99300.29;4040912;85;21143;-89
2022/12/30 13:40:18;;;;;;;51.45;27.80;;;;;;;7.45;95.07;99290.19;4041209;86;21447;-89
2022/12/30 13:46:27;;;;;;;58.65;30.85;;;;;;;7.36;95.50;99295.00;4040407;86;21812;-90
2022/12/30 13:52:30;;;;;;;61.42;30.48;;;;;;;7.23;95.49;99289.36;4037989;86;21066;-90
2022/12/30 13:58:52;;;;;;;59.67;30.45;;;;;;;7.14;95.36;99305.05;4046488;86;21375;-90
2022/12/30 14:04:56;;;;;;;61.50;30.97;;;;;;;6.93;95.12;99303.04;4046225;86;21497;-90
2022/12/30 14:11:07;;;;;;;62.23;31.75;;;;;;;6.75;95.42;99296.28;4038630;86;21067;-89
2022/12/30 14:17:16;;;;;;;58.05;30.97;;;;;;;6.58;95.41;99302.73;4045691;86;21094;-89
2022/12/30 14:23:52;;;;;;;64.27;32.83;;;;;;;6.29;95.55;99300.26;4046953;86;21110;-89
2022/12/30 14:30:05;;;;;;;;;;;;;;;6.15;95.91;99299.20;4048966;86;21111;-89
2022/12/30 14:36:11;;;;;;;67.92;33.58;;;;;;;5.95;95.97;99297.95;4043219;86;20553;-89
2022/12/30 14:42:27;;;;;;;69.20;31.33;;;;;;;5.73;96.15;99292.30;4042726;86;21019;-88
2022/12/30 14:49:04;;;;;;;59.10;31.02;;;;;;;5.49;96.02;99299.03;4044300;86;21075;-89
2022/12/30 14:55:12;;;;;;;58.08;30.20;;;;;;;5.17;95.88;99307.92;4033754;86;21114;-89
2022/12/30 15:01:13;;;;;;;67.85;34.58;;;;;;;4.88;96.39;99312.06;4034185;86;21094;-88
2022/12/30 15:07:30;;;;;;;73.07;37.15;;;;;;;4.68;96.54;99320.39;4041572;86;21079;-89
2022/12/30 15:13:46;;;;;;;93.95;47.53;;;;;;;4.40;96.55;99313.85;4043024;86;21071;-88
2022/12/30 15:19:48;;;;;;;115.20;58.93;;;;;;;4.23;97.11;99310.42;4041424;86;21044;-89
2022/12/30 15:26:04;;;;;;;111.17;59.48;;;;;;;3.99;96.84;99300.73;4040346;86;21051;-89
2022/12/30 15:32:16;;;;;;;68.07;35.30;;;;;;;3.82;97.71;99299.44;4049757;86;21107;-88
2022/12/30 15:38:29;;;;;;;107.58;53.45;;;;;;;3.60;97.52;99284.20;4073601;86;21187;-88
2022/12/30 15:44:30;;;;;;;102.40;51.18;;;;;;;3.37;97.78;99288.20;4069948;86;21537;-89
2022/12/30 15:50:39;;;;;;;111.42;50.50;;;;;;;3.18;97.71;99288.54;4074738;86;21070;-89
2022/12/30 15:56:44;;;;;;;108.47;53.70;;;;;;;3.02;98.47;99309.06;4067960;86;21074;-88
2022/12/30 16:02:45;;;;;;;105.50;48.35;;;;;;;2.88;98.56;99304.94;4069442;86;21129;-89
2022/12/30 16:08:47;;;;;;;99.30;51.80;;;;;;;2.73;98.50;99316.19;4074010;86;21054;-88
2022/12/30 16:15:08;;;;;;;107.50;51.37;;;;;;;2.56;98.21;99322.37;4067315;86;21081;-89
2022/12/30 16:21:10;;;;;;;122.87;64.67;;;;;;;2.27;98.11;99324.03;4077632;86;21062;-89
2022/12/30 16:27:17;;;;;;;123.30;60.77;;;;;;;2.11;98.93;99329.59;4072700;86;21180;-88
2022/12/30 16:33:19;;;;;;;126.47;66.07;;;;;;;1.91;98.87;99339.02;4065365;86;21055;-88
2022/12/30 16:39:21;;;;;;;127.75;66.22;;;;;;;1.78;99.11;99332.36;4069652;86;21956;-88
2022/12/30 16:45:24;;;;;;;113.57;58.42;;;;;;;1.64;99.76;99326.48;4068951;86;21064;-87
2022/12/30 16:51:48;;;;;;;154.30;78.25;;;;;;;1.55;99.77;99340.48;4026579;87;21162;-88
2022/12/30 16:57:50;;;;;;;135.15;70.83;;;;;;;1.42;99.44;99325.71;4028478;87;21037;-90
2022/12/30 17:03:52;;;;;;;158.50;79.85;;;;;;;1.26;99.48;99324.48;4029476;87;21045;-88
2022/12/30 17:16:18;;;;;;;139.97;73.90;;;;;;;0.89;100.00;99323.46;4027106;87;21628;-88
2022/12/30 17:22:23;;;;;;;168.28;88.50;;;;;;;0.79;99.76;99312.89;4027886;87;21533;-88
2022/12/30 17:28:25;;;;;;;154.38;78.75;;;;;;;0.58;99.82;99319.27;4029378;87;21072;-88
2022/12/30 17:34:26;;;;;;;129.78;67.37;;;;;;;0.48;100.00;99314.11;4028790;86;21081;-88
2022/12/30 17:40:28;;;;;;;149.25;77.30;;;;;;;0.38;100.00;99322.92;4030186;86;21914;-89
2022/12/30 17:46:30;;;;;;;149.75;76.50;;;;;;;0.32;100.00;99320.90;4037497;86;21172;-88
2022/12/30 17:52:31;;;;;;;160.35;83.37;;;;;;;0.28;100.00;99315.87;3921993;86;10000381;-88
2022/12/30 17:58:33;;;;;;;208.53;112.88;;;;;;;0.14;100.00;99313.73;4028463;86;21091;-88
2022/12/30 18:04:40;;;;;;;170.38;88.92;;;;;;;0.03;100.00;99323.64;4031786;86;21042;-88
2022/12/30 18:10:42;;;;;;;178.72;89.70;;;;;;;-0.12;100.00;99314.75;4037013;86;21483;-89
2022/12/30 18:16:46;;;;;;;168.82;91.28;;;;;;;-0.14;100.00;99319.62;4040495;85;21091;-89
2022/12/30 18:22:48;;;;;;;201.02;104.05;;;;;;;-0.14;100.00;99316.94;3990926;86;21465;-89
2022/12/30 18:28:53;;;;;;;234.12;116.55;;;;;;;-0.29;100.00;99293.55;4034287;86;21062;-88
2022/12/30 18:34:55;;;;;;;202.45;101.33;;;;;;;-0.37;100.00;99292.87;4016715;87;21623;-88
2022/12/30 18:40:56;;;;;;;230.37;111.90;;;;;;;-0.37;100.00;99292.87;4017964;87;21030;-88
2022/12/30 18:46:58;;;;;;;180.07;89.70;;;;;;;-0.44;100.00;99295.17;4011905;87;21054;-88
2022/12/30 18:53:01;;;;;;;207.05;105.63;;;;;;;-0.47;100.00;99293.86;4012689;87;21042;-89
2022/12/30 18:59:04;;;;;;;235.53;117.33;;;;;;;-0.47;100.00;99284.44;4007876;86;21131;-87
2022/12/30 19:05:07;;;;;;;243.42;121.85;;;;;;;-0.52;100.00;99279.15;4006665;87;21085;-88
2022/12/30 19:11:16;;;;;;;200.60;105.40;;;;;;;-0.59;100.00;99281.97;4011003;87;21066;-88
2022/12/30 19:17:18;;;;;;;186.65;94.47;;;;;;;-0.80;100.00;99280.16;4011621;87;21154;-88
2022/12/30 19:23:19;;;;;;;194.75;101.92;;;;;;;-0.80;100.00;99280.16;4008968;87;21073;-88
2022/12/30 19:29:21;;;;;;;199.02;104.53;;;;;;;-0.83;100.00;99276.72;4018514;87;21042;-88
2022/12/30 19:35:26;;;;;;;195.28;101.50;;;;;;;-0.88;100.00;99271.99;4010299;87;21126;-88
2022/12/30 19:41:33;;;;;;;186.15;98.62;;;;;;;-0.99;100.00;99261.15;4012593;87;21094;-90
2022/12/30 19:47:34;;;;;;;196.87;100.03;;;;;;;-0.98;100.00;99260.86;4040763;86;21051;-90
2022/12/30 19:53:35;;;;;;;187.20;97.17;;;;;;;-1.03;100.00;99262.27;3990872;87;21015;-90
2022/12/30 19:59:37;;;;;;;181.25;92.35;;;;;;;-1.02;100.00;99254.48;4006795;87;22038;-91
2022/12/30 20:05:41;;;;;;;184.20;92.40;;;;;;;-1.00;100.00;99251.50;4010814;87;21054;-90
2022/12/30 20:11:43;;;;;;;197.35;101.42;;;;;;;-0.97;100.00;99256.29;4010664;87;21015;-90
2022/12/30 20:17:44;;;;;;;239.08;117.40;;;;;;;-1.01;100.00;99262.79;4017022;86;21128;-89
2022/12/30 20:23:46;;;;;;;296.20;141.65;;;;;;;-1.12;100.00;99263.23;4007615;86;21102;-90
2022/12/30 20:29:53;;;;;;;261.32;125.18;;;;;;;-1.23;100.00;99259.91;4001471;87;21039;-89
2022/12/30 20:35:54;;;;;;;293.35;137.47;;;;;;;-1.27;100.00;99275.55;4017721;86;21158;-89
2022/12/30 20:41:57;;;;;;;286.90;136.13;;;;;;;-1.27;100.00;99259.44;4035339;86;22045;-89
2022/12/30 20:47:58;;;;;;;268.97;131.13;;;;;;;-1.33;100.00;99260.61;4034293;86;21051;-90
2022/12/30 20:54:01;;;;;;;253.27;125.27;;;;;;;-1.40;100.00;99252.91;4029172;86;21042;-89
2022/12/30 21:00:03;;;;;;;257.47;124.27;;;;;;;-1.44;100.00;99263.95;4034495;86;21977;-90
2022/12/30 21:06:10;;;;;;;265.30;137.03;;;;;;;-1.49;100.00;99256.00;4030843;86;21029;-89
2022/12/30 21:12:11;;;;;;;267.73;138.33;;;;;;;-1.53;100.00;99257.65;4026615;86;21029;-90
2022/12/30 21:18:13;;;;;;;279.20;142.13;;;;;;;-1.50;100.00;99249.02;4036999;86;21019;-90
2022/12/30 21:24:14;;;;;;;234.70;126.70;;;;;;;-1.45;100.00;99248.95;4028512;86;21066;-90
2022/12/30 21:30:15;;;;;;;257.53;138.13;;;;;;;-1.50;100.00;99246.89;4037655;86;21038;-90
2022/12/30 21:36:21;;;;;;;259.17;131.47;;;;;;;-1.53;100.00;99240.20;4043583;86;21395;-90
2022/12/30 22:07:42;;;;;;;212.27;108.40;;;;;;;-1.61;100.00;99228.77;4042133;86;21022;-89
2022/12/30 22:13:44;;;;;;;221.40;117.47;;;;;;;-1.65;100.00;99221.86;4034184;86;21040;-88
2022/12/30 22:19:45;;;;;;;212.67;114.30;;;;;;;-1.66;100.00;99220.80;4042632;86;21164;-87
2022/12/30 22:25:49;;;;;;;199.33;103.73;;;;;;;-1.65;100.00;99207.09;4040151;86;21479;-88
2022/12/30 22:31:50;;;;;;;207.83;109.17;;;;;;;-1.65;100.00;99213.81;4034777;86;21559;-89
2022/12/30 22:37:52;;;;;;;225.60;111.37;;;;;;;-1.61;100.00;99208.09;4031729;86;21037;-88
2022/12/30 22:43:53;;;;;;;227.47;117.07;;;;;;;-1.60;100.00;99204.88;4083302;85;21079;-86
2022/12/30 22:49:54;;;;;;;228.07;120.67;;;;;;;-1.58;100.00;99191.94;4090623;85;21513;-86
2022/12/30 22:55:56;;;;;;;230.83;118.10;;;;;;;-1.52;100.00;99188.12;4085818;85;21519;-87
2022/12/30 23:01:57;;;;;;;224.43;108.20;;;;;;;-1.49;100.00;99184.05;4086232;85;21054;-87
2022/12/30 23:08:01;;;;;;;191.20;96.23;;;;;;;-1.58;100.00;99180.42;4071123;86;20982;-86
2022/12/30 23:20:22;;;;;;;189.43;98.10;;;;;;;-1.69;100.00;99170.36;4069204;86;21024;-86
2022/12/30 23:26:27;;;;;;;189.77;98.37;;;;;;;-1.83;100.00;99172.98;4065445;86;21524;-87
2022/12/30 23:32:28;;;;;;;177.50;94.23;;;;;;;-1.86;100.00;99160.69;4070846;86;21051;-86
2022/12/30 23:38:30;;;;;;;176.87;87.60;;;;;;;-1.93;100.00;99158.92;4069792;86;22017;-86
2022/12/30 23:44:31;;;;;;;185.20;95.00;;;;;;;-1.86;100.00;99168.73;4068151;86;20990;-86
2022/12/30 23:50:35;;;;;;;216.20;107.37;;;;;;;-1.88;100.00;99172.27;4066423;86;21058;-86
2022/12/30 23:56:37;;;;;;;196.13;102.00;;;;;;;-1.86;100.00;99160.69;4077280;86;21051;-86
